Time;durP1;ratioP1;P1;durP2;ratioP2;P2;SDS_P1;SDS_P2;PMS_P1;PMS_P2;Temp;Humidity;BMP_temperature;BMP_pressure;BME280_temperature;BME280_humidity;BME280_pressure;Samples;Min_cycle;Max_cycle;Signal;HPM_P1;HPM_P2
2022/10/13 00:00:29;;;;;;;8.70;5.10;;;9.70;99.90;;;;;;4173860;28;20232;-80
2022/10/13 00:02:31;;;;;;;13.60;6.00;;;9.70;99.90;;;;;;4157847;28;20669;-80
2022/10/13 00:04:33;;;;;;;9.83;5.83;;;9.60;99.90;;;;;;4155679;28;20297;-80
2022/10/13 00:06:35;;;;;;;9.87;5.33;;;9.90;99.90;;;;;;4154637;28;20255;-80
2022/10/13 00:08:38;;;;;;;8.70;5.20;;;9.60;99.90;;;;;;4156933;28;20318;-80
2022/10/13 00:10:40;;;;;;;9.37;5.00;;;9.60;99.90;;;;;;4175088;28;20353;-80
2022/10/13 00:12:42;;;;;;;10.17;5.63;;;9.60;99.90;;;;;;4153319;28;20208;-80
2022/10/13 00:14:46;;;;;;;7.97;5.13;;;9.60;99.90;;;;;;4166667;28;20215;-80
2022/10/13 00:16:48;;;;;;;8.57;5.27;;;9.60;99.90;;;;;;4175099;28;20261;-80
2022/10/13 00:18:50;;;;;;;8.70;5.00;;;9.90;99.90;;;;;;4181927;28;20242;-80
2022/10/13 00:20:52;;;;;;;8.00;5.03;;;9.60;99.90;;;;;;4161347;28;20239;-80
2022/10/13 00:22:54;;;;;;;11.33;6.03;;;9.90;99.90;;;;;;4161801;28;20204;-80
2022/10/13 00:24:59;;;;;;;8.00;5.00;;;9.50;99.90;;;;;;4165226;28;20211;-80
2022/10/13 00:27:01;;;;;;;8.47;4.83;;;9.50;99.90;;;;;;4159932;28;20211;-80
2022/10/13 00:29:03;;;;;;;9.73;5.00;;;9.50;99.90;;;;;;4176249;28;20232;-80
2022/10/13 00:31:18;;;;;;;9.97;5.17;;;9.50;99.90;;;;;;4166903;28;20215;-80
2022/10/13 00:33:20;;;;;;;8.93;5.20;;;9.40;99.90;;;;;;4172273;28;20310;-81
2022/10/13 00:35:23;;;;;;;10.90;6.00;;;10.10;99.90;;;;;;4171890;28;20571;-81
2022/10/13 00:37:26;;;;;;;9.77;5.77;;;9.40;99.90;;;;;;4168789;28;20610;-80
2022/10/13 00:39:28;;;;;;;11.07;5.43;;;9.70;99.90;;;;;;4178488;28;20628;-81
2022/10/13 00:41:30;;;;;;;8.90;5.33;;;9.40;99.90;;;;;;4173126;28;20370;-80
2022/10/13 00:43:51;;;;;;;10.17;5.83;;;9.40;99.90;;;;;;4170831;28;20215;-80
2022/10/13 00:45:54;;;;;;;9.03;5.50;;;9.40;99.90;;;;;;4172848;28;20265;-80
2022/10/13 00:48:01;;;;;;;11.17;6.07;;;9.40;99.90;;;;;;4152899;28;20883;-80
2022/10/13 00:50:04;;;;;;;11.57;5.20;;;9.40;99.90;;;;;;4154190;28;20255;-80
2022/10/13 00:52:06;;;;;;;8.17;5.00;;;9.40;99.90;;;;;;4152539;28;20290;-80
2022/10/13 00:54:11;;;;;;;8.27;5.03;;;9.40;99.90;;;;;;4155327;28;20462;-81
2022/10/13 00:56:18;;;;;;;10.23;5.37;;;9.40;99.90;;;;;;4166293;28;20215;-81
2022/10/13 00:58:23;;;;;;;9.10;4.90;;;9.40;99.90;;;;;;4178682;28;20232;-81
2022/10/13 01:00:25;;;;;;;8.40;5.23;;;9.40;99.90;;;;;;4159500;28;20236;-81
2022/10/13 01:02:34;;;;;;;9.00;5.50;;;9.40;99.90;;;;;;4169493;28;20818;-81
2022/10/13 01:04:42;;;;;;;8.37;5.00;;;9.40;99.90;;;;;;4162114;28;20226;-80
2022/10/13 01:06:45;;;;;;;7.30;4.90;;;9.50;99.90;;;;;;4171933;28;20239;-80
2022/10/13 01:08:47;;;;;;;12.90;6.50;;;9.80;99.90;;;;;;4162623;28;20211;-80
2022/10/13 01:11:00;;;;;;;8.83;5.40;;;9.40;99.90;;;;;;4162294;28;20235;-80
2022/10/13 01:13:12;;;;;;;7.67;4.90;;;9.40;99.90;;;;;;4155729;28;20203;-80
2022/10/13 01:15:22;;;;;;;6.70;4.67;;;9.40;99.90;;;;;;4150112;28;20637;-80
2022/10/13 01:17:33;;;;;;;8.80;5.10;;;9.40;99.90;;;;;;4154880;28;20261;-80
2022/10/13 01:20:04;;;;;;;9.00;4.63;;;9.40;99.90;;;;;;4157005;28;20262;-80
2022/10/13 01:22:23;;;;;;;7.70;4.63;;;9.50;99.90;;;;;;4159214;28;20317;-80
2022/10/13 01:24:44;;;;;;;7.97;4.83;;;9.50;99.90;;;;;;4153217;28;20643;-81
2022/10/13 01:27:08;;;;;;;6.60;4.17;;;9.50;99.90;;;;;;4157737;28;20231;-80
2022/10/13 01:29:24;;;;;;;11.60;5.43;;;9.50;99.90;;;;;;4153181;28;20292;-81
2022/10/13 01:31:32;;;;;;;11.37;5.70;;;9.50;99.90;;;;;;4168198;28;20251;-81
2022/10/13 01:33:42;;;;;;;8.50;5.23;;;9.50;99.90;;;;;;4183339;28;20214;-81
2022/10/13 01:36:06;;;;;;;8.07;5.20;;;9.60;99.90;;;;;;4165483;28;20212;-81
2022/10/13 01:38:16;;;;;;;9.77;5.73;;;9.50;99.90;;;;;;4158211;28;20246;-80
2022/10/13 01:40:24;;;;;;;9.87;5.63;;;9.40;99.90;;;;;;4153691;28;20352;-80
2022/10/13 01:42:33;;;;;;;10.03;5.50;;;9.40;99.90;;;;;;4154501;28;20218;-80
2022/10/13 01:44:39;;;;;;;8.10;4.87;;;9.40;99.90;;;;;;4153054;28;20315;-80
2022/10/13 01:46:44;;;;;;;8.97;5.53;;;9.40;99.90;;;;;;4153001;28;20729;-80
2022/10/13 01:48:46;;;;;;;10.70;5.07;;;9.40;99.90;;;;;;4175972;28;20214;-80
2022/10/13 01:50:49;;;;;;;10.60;5.67;;;9.30;99.90;;;;;;4158957;28;20229;-81
2022/10/13 01:52:53;;;;;;;10.20;5.67;;;9.40;99.90;;;;;;4171625;28;20219;-80
2022/10/13 01:54:55;;;;;;;8.93;5.43;;;9.40;99.90;;;;;;4157955;28;20216;-80
2022/10/13 01:56:57;;;;;;;11.03;6.00;;;9.40;99.90;;;;;;4173282;28;20214;-80
2022/10/13 01:59:05;;;;;;;13.43;6.20;;;9.40;99.90;;;;;;4176227;28;20290;-81
2022/10/13 02:01:23;;;;;;;10.23;5.53;;;9.40;99.90;;;;;;4164590;28;20366;-80
2022/10/13 02:03:38;;;;;;;9.00;4.93;;;9.40;99.90;;;;;;4166821;28;20216;-80
2022/10/13 02:05:48;;;;;;;9.03;5.03;;;9.40;99.90;;;;;;4163330;28;20247;-81
2022/10/13 02:07:56;;;;;;;12.07;5.33;;;9.40;99.90;;;;;;4183068;28;20206;-81
2022/10/13 02:10:05;;;;;;;10.57;5.33;;;9.40;99.90;;;;;;4170568;28;20231;-81
2022/10/13 02:12:13;;;;;;;9.87;5.20;;;9.30;99.90;;;;;;4176480;28;20207;-81
2022/10/13 02:14:20;;;;;;;10.50;5.30;;;9.30;99.90;;;;;;4179380;28;20782;-81
2022/10/13 02:16:23;;;;;;;11.03;5.57;;;9.30;99.90;;;;;;4184910;28;20225;-81
2022/10/13 02:18:31;;;;;;;9.57;5.33;;;9.40;99.90;;;;;;4162479;28;20505;-81
2022/10/13 02:20:33;;;;;;;9.33;5.17;;;9.40;99.90;;;;;;4161024;28;20235;-80
2022/10/13 02:22:40;;;;;;;8.10;5.07;;;9.40;99.90;;;;;;4155197;28;20214;-81
2022/10/13 02:24:43;;;;;;;8.13;4.67;;;9.50;99.90;;;;;;4158084;28;20326;-82
2022/10/13 02:26:45;;;;;;;10.83;5.77;;;9.40;99.90;;;;;;4160155;28;20215;-82
2022/10/13 02:28:47;;;;;;;10.07;6.00;;;10.20;99.90;;;;;;4183548;28;21109;-82
2022/10/13 02:30:49;;;;;;;10.93;6.03;;;9.40;99.90;;;;;;4159844;28;20301;-82
2022/10/13 02:32:52;;;;;;;9.77;5.80;;;9.70;99.90;;;;;;4163486;28;20212;-82
2022/10/13 02:34:55;;;;;;;9.70;5.77;;;9.40;99.90;;;;;;4164547;28;20215;-82
2022/10/13 02:36:57;;;;;;;11.23;6.47;;;9.50;99.90;;;;;;4161743;28;20216;-82
2022/10/13 02:38:59;;;;;;;9.97;6.27;;;9.50;99.90;;;;;;4164201;28;20304;-83
2022/10/13 02:41:01;;;;;;;10.20;6.17;;;9.70;99.90;;;;;;4167990;28;20654;-82
2022/10/13 02:43:03;;;;;;;12.87;6.73;;;9.40;99.90;;;;;;4178714;28;20269;-81
2022/10/13 02:45:06;;;;;;;10.37;6.00;;;9.40;99.90;;;;;;4160736;28;20211;-82
2022/10/13 02:47:08;;;;;;;10.73;6.20;;;9.40;99.90;;;;;;4179683;28;20203;-80
2022/10/13 02:49:10;;;;;;;12.40;6.83;;;9.50;99.90;;;;;;4166359;28;20204;-80
2022/10/13 02:51:14;;;;;;;10.27;5.93;;;9.40;99.90;;;;;;4157793;28;20223;-80
2022/10/13 02:53:15;;;;;;;11.67;6.80;;;9.40;99.90;;;;;;4172153;28;20665;-82
2022/10/13 02:55:18;;;;;;;13.07;7.40;;;9.50;99.90;;;;;;4154541;28;20200;-82
2022/10/13 02:57:20;;;;;;;14.43;7.13;;;9.40;99.90;;;;;;4156346;28;20271;-82
2022/10/13 02:59:22;;;;;;;12.47;6.60;;;9.20;99.90;;;;;;4173097;28;20219;-82
2022/10/13 03:01:23;;;;;;;12.60;7.93;;;9.40;99.90;;;;;;4157036;28;20227;-81
2022/10/13 03:03:25;;;;;;;14.40;8.23;;;9.40;99.90;;;;;;4170087;28;20482;-82
2022/10/13 03:05:27;;;;;;;18.93;7.80;;;9.40;99.90;;;;;;4160937;28;20238;-82
2022/10/13 03:07:31;;;;;;;14.37;7.67;;;9.40;99.90;;;;;;4156245;28;20466;-82
2022/10/13 03:09:33;;;;;;;13.57;8.20;;;9.60;99.90;;;;;;4175810;28;20638;-80
2022/10/13 03:11:35;;;;;;;12.50;7.77;;;9.40;99.90;;;;;;4156884;28;20231;-82
2022/10/13 03:13:37;;;;;;;12.47;6.47;;;9.40;99.90;;;;;;4166911;28;20473;-82
2022/10/13 03:15:38;;;;;;;16.17;8.53;;;9.30;99.90;;;;;;4187053;28;20211;-80
2022/10/13 03:17:41;;;;;;;13.77;8.23;;;9.40;99.90;;;;;;4158806;28;20286;-82
2022/10/13 03:19:42;;;;;;;14.13;7.90;;;9.30;99.90;;;;;;4163538;28;20500;-80
2022/10/13 03:21:44;;;;;;;12.97;7.17;;;9.40;99.90;;;;;;4152926;28;20290;-80
2022/10/13 03:23:48;;;;;;;13.07;7.57;;;9.40;99.90;;;;;;4175795;28;20270;-80
2022/10/13 03:25:49;;;;;;;15.83;8.87;;;9.30;99.90;;;;;;4155652;28;20211;-80
2022/10/13 03:27:52;;;;;;;16.00;7.77;;;9.30;99.90;;;;;;4177315;28;20201;-81
2022/10/13 03:29:54;;;;;;;12.57;7.30;;;9.30;99.90;;;;;;4179555;28;20294;-81
2022/10/13 03:31:55;;;;;;;14.10;8.03;;;9.30;99.90;;;;;;4165609;28;20737;-80
2022/10/13 03:33:57;;;;;;;11.23;7.47;;;9.30;99.90;;;;;;4173520;28;20206;-79
2022/10/13 03:36:00;;;;;;;13.87;7.87;;;9.30;99.90;;;;;;4154359;28;20254;-82
2022/10/13 03:38:02;;;;;;;12.00;6.83;;;9.30;99.90;;;;;;4152395;28;20322;-82
2022/10/13 03:40:07;;;;;;;12.20;7.17;;;9.30;99.90;;;;;;4159838;28;20311;-79
2022/10/13 03:42:09;;;;;;;11.73;6.93;;;9.20;99.90;;;;;;4162193;28;20473;-79
2022/10/13 03:44:12;;;;;;;11.50;6.87;;;9.30;99.90;;;;;;4160623;28;20253;-82
2022/10/13 03:46:16;;;;;;;12.37;7.53;;;9.20;99.90;;;;;;4178211;28;20468;-80
2022/10/13 03:48:18;;;;;;;11.53;7.13;;;9.20;99.90;;;;;;4177090;28;20456;-81
2022/10/13 03:50:20;;;;;;;15.70;7.73;;;9.20;99.90;;;;;;4163367;28;20238;-79
2022/10/13 03:52:22;;;;;;;12.00;7.20;;;9.20;99.90;;;;;;4165662;28;20214;-82
2022/10/13 03:54:24;;;;;;;12.50;7.40;;;9.20;99.90;;;;;;4174082;28;20487;-79
2022/10/13 03:56:28;;;;;;;11.53;7.10;;;9.20;99.90;;;;;;4175665;28;20540;-82
2022/10/13 03:58:30;;;;;;;12.33;6.93;;;9.20;99.90;;;;;;4156788;28;20470;-82
2022/10/13 04:00:32;;;;;;;10.97;6.63;;;9.20;99.90;;;;;;4170198;28;20227;-83
2022/10/13 04:02:34;;;;;;;12.90;6.90;;;9.20;99.90;;;;;;4157259;28;20529;-81
2022/10/13 04:04:37;;;;;;;10.60;6.90;;;9.10;99.90;;;;;;4174192;28;20498;-81
2022/10/13 04:06:39;;;;;;;12.17;7.40;;;9.10;99.90;;;;;;4169824;28;20581;-79
2022/10/13 04:08:41;;;;;;;12.40;6.63;;;9.10;99.90;;;;;;4159073;28;20598;-80
2022/10/13 04:10:43;;;;;;;11.20;7.03;;;9.10;99.90;;;;;;4175579;28;20265;-81
2022/10/13 04:12:48;;;;;;;12.07;6.63;;;9.10;99.90;;;;;;4171410;28;20278;-81
2022/10/13 04:14:50;;;;;;;9.73;5.90;;;9.20;99.90;;;;;;4172124;28;21200;-81
2022/10/13 04:16:52;;;;;;;15.67;8.67;;;9.10;99.90;;;;;;4177812;28;20465;-81
2022/10/13 04:18:56;;;;;;;13.10;6.87;;;9.20;99.90;;;;;;4158816;28;20465;-80
2022/10/13 04:20:58;;;;;;;12.50;6.53;;;9.20;99.90;;;;;;4157761;28;20471;-80
2022/10/13 04:23:00;;;;;;;11.93;6.67;;;9.20;99.90;;;;;;4160976;28;21172;-79
2022/10/13 04:25:02;;;;;;;11.60;6.60;;;9.20;99.90;;;;;;4156347;28;20454;-80
2022/10/13 04:27:04;;;;;;;12.03;7.20;;;9.20;99.90;;;;;;4177060;28;20202;-80
2022/10/13 04:29:09;;;;;;;11.77;5.97;;;9.20;99.90;;;;;;4157689;28;20582;-79
2022/10/13 04:31:10;;;;;;;10.07;6.07;;;9.20;99.90;;;;;;4174507;28;20250;-81
2022/10/13 04:33:12;;;;;;;8.87;6.13;;;9.20;99.90;;;;;;4174352;28;20484;-80
2022/10/13 04:35:14;;;;;;;14.53;7.50;;;9.20;99.90;;;;;;4162420;28;20220;-81
2022/10/13 04:37:17;;;;;;;10.80;6.27;;;9.20;99.90;;;;;;4166591;28;20294;-80
2022/10/13 04:39:19;;;;;;;9.10;5.97;;;9.20;99.90;;;;;;4158044;28;20203;-80
2022/10/13 04:41:22;;;;;;;13.50;6.97;;;9.30;99.90;;;;;;4160803;28;20231;-80
2022/10/13 04:43:24;;;;;;;11.20;6.67;;;9.30;99.90;;;;;;4159304;28;20828;-80
2022/10/13 04:45:27;;;;;;;11.13;6.33;;;9.30;99.90;;;;;;4158662;28;20220;-80
2022/10/13 04:47:29;;;;;;;14.53;7.77;;;9.30;99.90;;;;;;4175003;28;20238;-80
2022/10/13 04:49:31;;;;;;;13.17;7.33;;;9.30;99.90;;;;;;4178859;28;20483;-81
2022/10/13 04:51:33;;;;;;;13.57;7.83;;;9.30;99.90;;;;;;4157243;28;20256;-80
2022/10/13 04:53:35;;;;;;;12.53;7.20;;;9.30;99.90;;;;;;4167474;28;20216;-79
2022/10/13 04:55:37;;;;;;;15.07;8.63;;;9.30;99.90;;;;;;4155582;28;20208;-82
2022/10/13 04:57:39;;;;;;;15.67;8.27;;;9.30;99.90;;;;;;4160408;28;20323;-81
2022/10/13 04:59:41;;;;;;;15.13;7.17;;;9.30;99.90;;;;;;4168392;28;20211;-81
2022/10/13 05:01:44;;;;;;;10.93;7.23;;;9.40;99.90;;;;;;4164297;28;20585;-80
2022/10/13 05:03:47;;;;;;;12.60;7.83;;;9.30;99.90;;;;;;4182057;28;20195;-81
2022/10/13 05:05:49;;;;;;;11.80;6.83;;;9.30;99.90;;;;;;4183377;28;20552;-81
2022/10/13 05:07:50;;;;;;;12.63;7.40;;;9.30;99.90;;;;;;4162932;28;20209;-80
2022/10/13 05:09:52;;;;;;;12.53;7.50;;;9.70;99.90;;;;;;4166127;28;20498;-81
2022/10/13 05:11:54;;;;;;;10.40;6.70;;;9.30;99.90;;;;;;4165834;28;20763;-82
2022/10/13 05:13:57;;;;;;;11.83;7.30;;;9.40;99.90;;;;;;4156262;28;20485;-80
2022/10/13 05:15:59;;;;;;;11.50;7.10;;;9.40;99.90;;;;;;4154076;28;20460;-80
2022/10/13 05:18:02;;;;;;;13.30;7.10;;;9.40;99.90;;;;;;4178251;28;20477;-81
2022/10/13 05:20:05;;;;;;;15.43;8.60;;;9.40;99.90;;;;;;4176780;28;20461;-82
2022/10/13 05:22:07;;;;;;;13.93;7.80;;;9.50;99.90;;;;;;4156757;28;20321;-81
2022/10/13 05:24:12;;;;;;;13.57;8.30;;;9.50;99.90;;;;;;4160951;28;21690;-79
2022/10/13 05:26:16;;;;;;;16.23;8.87;;;9.50;99.90;;;;;;4153724;28;21022;-80
2022/10/13 05:28:18;;;;;;;14.93;8.60;;;9.50;99.90;;;;;;4161034;28;20581;-79
2022/10/13 05:30:20;;;;;;;18.03;9.10;;;9.50;99.90;;;;;;4175393;28;20223;-79
2022/10/13 05:32:22;;;;;;;14.93;7.93;;;9.60;99.90;;;;;;4165270;28;20208;-80
2022/10/13 05:34:25;;;;;;;16.13;8.50;;;9.60;99.90;;;;;;4188172;28;20824;-81
2022/10/13 05:36:29;;;;;;;14.70;8.80;;;9.60;99.90;;;;;;4177166;28;20202;-81
2022/10/13 05:38:31;;;;;;;13.40;8.10;;;9.60;99.90;;;;;;4168278;28;20243;-82
2022/10/13 05:40:33;;;;;;;11.93;6.93;;;9.70;99.90;;;;;;4171071;28;20234;-81
2022/10/13 05:42:35;;;;;;;11.33;7.10;;;9.60;99.90;;;;;;4182223;28;20227;-80
2022/10/13 05:44:37;;;;;;;11.43;6.73;;;9.70;99.90;;;;;;4163908;28;20239;-79
2022/10/13 05:46:39;;;;;;;11.67;7.53;;;9.70;99.90;;;;;;4172258;28;20210;-83
2022/10/13 05:48:41;;;;;;;12.10;6.73;;;9.80;99.90;;;;;;4182949;28;20204;-81
2022/10/13 05:50:44;;;;;;;14.60;7.60;;;9.70;99.90;;;;;;4176738;28;20268;-79
2022/10/13 05:52:46;;;;;;;12.77;6.87;;;9.70;99.90;;;;;;4159284;28;20267;-80
2022/10/13 05:54:51;;;;;;;14.77;8.67;;;9.70;99.90;;;;;;4185513;28;20210;-80
2022/10/13 05:56:57;;;;;;;19.77;9.87;;;9.70;99.90;;;;;;4170534;28;20207;-77
2022/10/13 05:59:02;;;;;;;21.63;10.97;;;9.90;99.90;;;;;;4175752;28;20208;-79
2022/10/13 06:01:06;;;;;;;18.13;9.83;;;10.00;99.90;;;;;;4164803;28;20223;-82
2022/10/13 06:03:12;;;;;;;13.90;8.63;;;9.80;99.90;;;;;;4159983;28;20295;-77
2022/10/13 06:05:17;;;;;;;19.00;10.27;;;9.80;99.90;;;;;;4179153;28;20275;-83
2022/10/13 06:07:20;;;;;;;18.77;9.57;;;9.90;99.90;;;;;;4184069;28;20234;-82
2022/10/13 06:09:22;;;;;;;13.50;7.97;;;9.90;99.90;;;;;;4163298;28;20254;-78
2022/10/13 06:11:24;;;;;;;15.57;8.90;;;9.90;99.90;;;;;;4156149;28;20260;-80
2022/10/13 06:13:26;;;;;;;15.93;9.23;;;9.90;99.90;;;;;;4149184;28;20268;-86
2022/10/13 06:15:28;;;;;;;16.90;9.27;;;10.00;99.90;;;;;;4141695;28;20223;-80
2022/10/13 06:17:30;;;;;;;14.03;8.23;;;10.00;99.90;;;;;;4152049;28;20253;-80
2022/10/13 06:19:32;;;;;;;14.03;7.33;;;10.00;99.90;;;;;;4175706;28;20424;-83
2022/10/13 06:21:35;;;;;;;11.63;7.33;;;10.00;99.90;;;;;;4159366;28;20935;-81
2022/10/13 06:23:38;;;;;;;12.77;8.23;;;10.10;99.90;;;;;;4173325;28;20261;-80
2022/10/13 06:25:47;;;;;;;12.50;7.63;;;10.10;99.90;;;;;;4166225;28;20215;-82
2022/10/13 06:27:49;;;;;;;18.50;10.33;;;10.20;99.90;;;;;;4162150;28;20208;-84
2022/10/13 06:29:54;;;;;;;27.20;14.17;;;10.00;99.90;;;;;;4162791;28;20212;-80
2022/10/13 06:31:56;;;;;;;19.83;11.20;;;10.60;99.90;;;;;;4161778;28;20288;-80
2022/10/13 06:33:59;;;;;;;20.07;11.23;;;10.30;99.90;;;;;;4172634;28;20199;-81
2022/10/13 06:36:05;;;;;;;15.47;9.00;;;10.30;99.90;;;;;;4163065;28;20212;-82
2022/10/13 06:38:08;;;;;;;18.90;9.87;;;10.40;99.90;;;;;;4178526;28;20202;-83
2022/10/13 06:40:12;;;;;;;16.80;8.93;;;10.40;99.90;;;;;;4166364;28;20238;-80
2022/10/13 06:42:14;;;;;;;16.10;9.17;;;10.40;99.90;;;;;;4170855;28;20203;-84
2022/10/13 06:44:15;;;;;;;18.73;10.07;;;10.50;99.90;;;;;;4165208;28;20229;-83
2022/10/13 06:46:17;;;;;;;20.37;10.47;;;10.50;99.90;;;;;;4177192;28;20307;-83
2022/10/13 06:48:19;;;;;;;17.23;10.03;;;10.50;99.90;;;;;;4163102;28;20650;-80
2022/10/13 06:50:21;;;;;;;21.87;11.73;;;10.50;99.90;;;;;;4171309;28;20232;-80
2022/10/13 06:52:23;;;;;;;18.87;10.30;;;10.60;99.90;;;;;;4159350;28;20233;-81
2022/10/13 06:54:25;;;;;;;17.70;9.37;;;10.60;99.90;;;;;;4173741;28;20216;-79
2022/10/13 06:56:29;;;;;;;24.53;13.47;;;10.60;99.90;;;;;;4158946;28;20213;-81
2022/10/13 06:58:31;;;;;;;26.07;12.90;;;10.60;99.90;;;;;;4156384;28;20220;-81
2022/10/13 07:00:33;;;;;;;28.60;14.17;;;10.70;99.90;;;;;;4156363;28;20725;-82
2022/10/13 07:02:35;;;;;;;31.70;14.57;;;10.70;99.90;;;;;;4158042;28;20248;-81
2022/10/13 07:04:37;;;;;;;25.03;12.93;;;10.70;99.90;;;;;;4173396;28;20219;-80
2022/10/13 07:06:39;;;;;;;20.07;11.77;;;11.00;99.90;;;;;;4157133;28;20722;-81
2022/10/13 07:08:40;;;;;;;26.17;13.90;;;10.80;99.90;;;;;;4174706;28;20638;-80
2022/10/13 07:10:42;;;;;;;26.00;13.10;;;10.80;99.90;;;;;;4179670;28;20737;-81
2022/10/13 07:12:46;;;;;;;28.27;14.10;;;11.00;99.90;;;;;;4171747;28;20243;-81
2022/10/13 07:14:48;;;;;;;30.80;14.60;;;10.90;99.90;;;;;;4150036;28;20214;-80
2022/10/13 07:16:50;;;;;;;30.13;14.87;;;10.90;99.90;;;;;;4174928;28;20204;-84
2022/10/13 07:18:52;;;;;;;31.13;15.53;;;10.90;99.90;;;;;;4160275;28;20216;-80
2022/10/13 07:20:54;;;;;;;30.67;14.70;;;10.90;99.90;;;;;;4152422;28;20256;-83
2022/10/13 07:22:56;;;;;;;29.53;14.50;;;11.00;99.90;;;;;;4152199;28;20230;-79
2022/10/13 07:24:58;;;;;;;26.83;13.77;;;11.00;99.90;;;;;;4164359;28;20258;-80
2022/10/13 07:26:59;;;;;;;26.50;14.57;;;11.10;99.90;;;;;;4161256;28;20225;-79
2022/10/13 07:29:03;;;;;;;32.53;15.57;;;11.10;99.90;;;;;;4175866;28;20210;-80
2022/10/13 07:31:09;;;;;;;31.83;16.43;;;11.10;99.90;;;;;;4178588;28;20224;-80
2022/10/13 07:33:11;;;;;;;27.27;14.80;;;11.10;99.90;;;;;;4182430;28;20226;-83
2022/10/13 07:35:14;;;;;;;26.03;14.07;;;11.90;99.90;;;;;;4159476;28;20207;-79
2022/10/13 07:37:16;;;;;;;32.47;15.83;;;11.20;99.90;;;;;;4175935;28;20280;-82
2022/10/13 07:39:18;;;;;;;35.10;16.23;;;11.30;99.90;;;;;;4156931;28;20535;-81
2022/10/13 07:41:20;;;;;;;35.50;15.50;;;11.30;99.90;;;;;;4174758;28;20604;-81
2022/10/13 07:43:22;;;;;;;33.63;14.93;;;11.30;99.90;;;;;;4157611;28;20237;-80
2022/10/13 07:45:25;;;;;;;35.07;15.57;;;11.40;99.90;;;;;;4158642;28;20238;-79
2022/10/13 07:47:28;;;;;;;30.53;14.90;;;11.40;99.90;;;;;;4177694;28;20213;-81
2022/10/13 07:49:30;;;;;;;29.23;15.27;;;11.40;99.90;;;;;;4175286;28;20204;-81
2022/10/13 07:51:31;;;;;;;34.57;15.90;;;11.50;99.90;;;;;;4161837;28;20696;-81
2022/10/13 07:53:34;;;;;;;28.33;15.23;;;11.60;99.90;;;;;;4159731;28;20241;-81
2022/10/13 07:55:36;;;;;;;31.00;15.57;;;11.60;99.90;;;;;;4157759;28;20264;-82
2022/10/13 07:57:38;;;;;;;27.33;14.30;;;11.60;99.90;;;;;;4176170;28;20259;-80
2022/10/13 07:59:40;;;;;;;30.93;14.67;;;11.60;99.90;;;;;;4158072;28;20219;-81
2022/10/13 08:01:44;;;;;;;32.03;15.07;;;11.60;99.90;;;;;;4178663;28;20520;-80
2022/10/13 08:03:46;;;;;;;29.57;14.33;;;12.10;99.90;;;;;;4178844;28;20303;-82
2022/10/13 08:05:48;;;;;;;27.23;14.13;;;11.80;99.90;;;;;;4182851;28;20626;-81
2022/10/13 08:07:50;;;;;;;33.17;15.77;;;11.90;99.90;;;;;;4177801;28;20768;-84
2022/10/13 08:09:51;;;;;;;34.57;15.93;;;12.20;99.90;;;;;;4158031;28;20202;-81
2022/10/13 08:11:53;;;;;;;32.10;15.87;;;12.00;99.90;;;;;;4169935;28;20205;-81
2022/10/13 08:13:59;;;;;;;34.50;16.20;;;12.00;99.90;;;;;;4175269;28;20792;-79
2022/10/13 08:16:02;;;;;;;33.83;15.90;;;12.10;99.90;;;;;;4155388;28;20298;-81
2022/10/13 08:18:05;;;;;;;34.80;16.07;;;12.10;99.90;;;;;;4158776;28;20222;-82
2022/10/13 08:20:08;;;;;;;34.70;16.87;;;12.20;99.90;;;;;;4158785;28;20230;-80
2022/10/13 08:22:10;;;;;;;37.10;16.40;;;12.30;99.90;;;;;;4178680;28;20408;-83
2022/10/13 08:24:14;;;;;;;30.53;15.33;;;12.50;99.90;;;;;;4148358;28;20318;-80
2022/10/13 08:26:19;;;;;;;31.50;16.07;;;12.40;99.90;;;;;;4153542;28;20215;-84
2022/10/13 08:28:22;;;;;;;32.97;15.47;;;12.50;99.90;;;;;;4158591;28;20887;-82
2022/10/13 08:30:24;;;;;;;30.10;14.33;;;12.50;99.90;;;;;;4175908;28;20258;-80
2022/10/13 08:32:26;;;;;;;28.33;14.23;;;12.60;99.90;;;;;;4181261;28;20220;-82
2022/10/13 08:34:30;;;;;;;28.23;15.17;;;12.70;99.90;;;;;;4178333;28;20205;-80
2022/10/13 08:36:32;;;;;;;30.67;13.97;;;12.70;99.90;;;;;;4158226;28;20247;-82
2022/10/13 08:38:33;;;;;;;27.90;14.57;;;12.90;99.90;;;;;;4165500;28;20214;-84
2022/10/13 08:40:39;;;;;;;28.47;14.23;;;12.90;99.90;;;;;;4178793;28;20226;-83
2022/10/13 08:42:43;;;;;;;29.97;15.13;;;13.00;99.90;;;;;;4163297;28;20249;-81
2022/10/13 08:44:49;;;;;;;30.53;14.93;;;13.10;99.90;;;;;;4162929;28;20216;-80
2022/10/13 08:46:57;;;;;;;29.47;14.53;;;13.20;99.90;;;;;;4180136;28;20265;-82
2022/10/13 08:49:01;;;;;;;28.80;14.10;;;13.50;99.90;;;;;;4177062;28;20218;-85
2022/10/13 08:51:17;;;;;;;26.37;13.67;;;13.40;99.90;;;;;;4174216;28;20783;-82
2022/10/13 08:53:27;;;;;;;25.23;13.27;;;13.50;99.90;;;;;;4160111;28;20221;-84
2022/10/13 08:55:34;;;;;;;23.83;14.07;;;13.60;99.90;;;;;;4160837;28;20258;-83
2022/10/13 08:57:36;;;;;;;31.83;14.27;;;13.50;99.90;;;;;;4177594;28;20240;-81
2022/10/13 08:59:39;;;;;;;26.33;13.47;;;13.70;99.90;;;;;;4165135;28;20261;-83
2022/10/13 09:01:42;;;;;;;29.97;13.87;;;13.80;99.90;;;;;;4163953;28;20655;-80
2022/10/13 09:03:53;;;;;;;28.07;13.77;;;13.90;99.90;;;;;;4185204;28;20208;-84
2022/10/13 09:06:06;;;;;;;23.67;13.47;;;14.00;99.90;;;;;;4192199;28;20202;-84
2022/10/13 09:08:17;;;;;;;30.03;14.30;;;14.10;99.90;;;;;;4170408;28;20200;-81
2022/10/13 09:10:19;;;;;;;34.33;14.80;;;14.10;99.90;;;;;;4160916;28;20224;-81
2022/10/13 09:12:23;;;;;;;24.87;13.33;;;14.20;99.90;;;;;;4157470;28;20220;-81
2022/10/13 09:14:28;;;;;;;31.53;14.37;;;14.30;99.90;;;;;;4173314;28;20607;-81
2022/10/13 09:16:36;;;;;;;28.97;14.07;;;14.40;99.90;;;;;;4175420;28;20991;-82
2022/10/13 09:18:46;;;;;;;26.77;13.17;;;14.50;99.90;;;;;;4161512;28;20824;-80
2022/10/13 09:21:16;;;;;;;26.20;12.90;;;14.40;99.90;;;;;;4154980;28;20232;-83
2022/10/13 09:23:22;;;;;;;25.67;12.97;;;14.60;99.90;;;;;;4154117;28;20221;-83
2022/10/13 09:25:24;;;;;;;26.67;14.10;;;14.70;99.90;;;;;;4157352;28;20284;-82
2022/10/13 09:27:26;;;;;;;26.57;12.80;;;14.80;99.90;;;;;;4162667;28;20759;-81
2022/10/13 09:29:28;;;;;;;21.90;12.07;;;14.80;99.90;;;;;;4157058;28;20213;-82
2022/10/13 09:31:31;;;;;;;23.43;12.90;;;14.90;99.90;;;;;;4161996;28;20219;-82
2022/10/13 09:33:37;;;;;;;25.77;13.70;;;14.90;99.90;;;;;;4165570;28;20284;-84
2022/10/13 09:35:42;;;;;;;28.40;13.83;;;14.90;99.90;;;;;;4177733;28;20204;-77
2022/10/13 09:37:44;;;;;;;27.00;13.77;;;15.00;99.90;;;;;;4155831;28;20247;-80
2022/10/13 09:40:01;;;;;;;26.17;14.23;;;15.00;99.90;;;;;;4170376;28;20233;-77
2022/10/13 09:42:20;;;;;;;24.07;13.50;;;15.10;99.90;;;;;;4171310;28;20210;-81
2022/10/13 09:44:28;;;;;;;27.73;13.77;;;15.20;99.90;;;;;;4173092;28;20239;-80
2022/10/13 09:46:34;;;;;;;27.67;14.43;;;15.20;99.90;;;;;;4172540;28;20294;-77
2022/10/13 09:48:37;;;;;;;24.77;13.73;;;15.30;99.90;;;;;;4168637;28;20630;-77
2022/10/13 09:50:48;;;;;;;27.13;13.53;;;15.40;99.90;;;;;;4176374;28;20894;-74
2022/10/13 09:52:51;;;;;;;25.83;15.10;;;15.50;99.90;;;;;;4166995;28;20266;-76
2022/10/13 09:54:59;;;;;;;28.63;13.80;;;15.60;99.90;;;;;;4166744;28;20283;-77
2022/10/13 09:57:06;;;;;;;25.97;13.77;;;15.70;99.90;;;;;;4170351;28;20195;-77
2022/10/13 09:59:17;;;;;;;26.10;13.57;;;15.70;99.90;;;;;;4150360;28;20228;-79
2022/10/13 10:01:25;;;;;;;21.53;12.30;;;15.80;99.90;;;;;;4172035;28;20284;-79
2022/10/13 10:03:32;;;;;;;24.70;13.87;;;16.00;99.90;;;;;;4168470;28;20289;-81
2022/10/13 10:05:42;;;;;;;22.77;13.20;;;15.90;99.90;;;;;;4154663;28;20226;-80
2022/10/13 10:07:44;;;;;;;23.37;12.50;;;16.00;99.90;;;;;;4172853;28;20232;-81
2022/10/13 10:09:50;;;;;;;23.77;12.37;;;16.00;99.90;;;;;;4176516;28;20205;-79
2022/10/13 10:11:55;;;;;;;26.33;13.80;;;16.00;99.90;;;;;;4157255;28;20829;-78
2022/10/13 10:13:58;;;;;;;33.50;13.93;;;16.00;99.90;;;;;;4177166;28;20217;-80
2022/10/13 10:16:05;;;;;;;23.73;14.37;;;16.10;99.90;;;;;;4159275;28;20770;-79
2022/10/13 10:18:13;;;;;;;26.37;13.73;;;16.10;99.90;;;;;;4172898;28;20207;-79
2022/10/13 10:20:36;;;;;;;25.10;13.30;;;16.10;99.90;;;;;;4178348;28;20315;-79
2022/10/13 10:22:47;;;;;;;25.43;12.37;;;16.10;99.90;;;;;;4177673;28;20207;-79
2022/10/13 10:24:55;;;;;;;21.37;11.40;;;16.20;99.90;;;;;;4175264;28;20221;-79
2022/10/13 10:27:02;;;;;;;19.50;10.53;;;16.20;99.90;;;;;;4152251;28;20302;-79
2022/10/13 10:29:17;;;;;;;26.20;14.80;;;16.30;99.90;;;;;;4156410;28;20207;-79
2022/10/13 10:31:33;;;;;;;25.20;13.80;;;16.30;99.90;;;;;;4172984;28;20646;-79
2022/10/13 10:33:48;;;;;;;24.80;11.87;;;16.30;99.90;;;;;;4175675;28;20616;-79
2022/10/13 10:35:57;;;;;;;24.53;11.93;;;16.40;99.90;;;;;;4171347;28;20213;-79
2022/10/13 10:38:12;;;;;;;20.83;10.83;;;16.40;99.90;;;;;;4175980;28;20206;-79
2022/10/13 10:40:26;;;;;;;23.03;11.70;;;16.50;99.90;;;;;;4155675;28;20291;-79
2022/10/13 10:43:07;;;;;;;20.93;11.27;;;16.50;99.90;;;;;;4160693;28;20608;-81